createdAt,value
2017-10-10T00:02:14.467Z,4.75
2017-10-10T00:04:42.038Z,3.83
2017-10-10T00:07:09.577Z,4.22
2017-10-10T00:09:37.126Z,3.95
2017-10-10T00:12:05.450Z,4.43
2017-10-10T00:14:32.976Z,4.53
2017-10-10T00:17:00.529Z,4.28
2017-10-10T00:19:28.828Z,4.87
2017-10-10T00:21:56.385Z,3.92
2017-10-10T00:24:23.921Z,4.45
2017-10-10T00:26:51.527Z,4.53
2017-10-10T00:29:19.047Z,4.65
2017-10-10T00:31:46.602Z,4.82
2017-10-10T00:34:14.151Z,4.85
2017-10-10T00:36:42.445Z,4.60
2017-10-10T00:39:10.001Z,5.68
2017-10-10T00:41:37.550Z,4.60
2017-10-10T00:44:05.863Z,5.00
2017-10-10T00:46:33.389Z,5.68
2017-10-10T00:49:01.701Z,5.47
2017-10-10T00:51:29.229Z,5.53
2017-10-10T00:53:56.792Z,5.65
2017-10-10T00:56:24.493Z,5.70
2017-10-10T00:58:52.030Z,5.97
2017-10-10T01:01:19.569Z,5.85
2017-10-10T01:03:47.860Z,4.57
2017-10-10T01:06:15.408Z,6.28
2017-10-10T01:08:43.694Z,5.85
2017-10-10T01:11:11.244Z,5.72
2017-10-10T01:13:39.565Z,5.62
2017-10-10T01:16:07.137Z,5.22
2017-10-10T01:18:34.657Z,5.65
2017-10-10T01:21:02.198Z,4.70
2017-10-10T01:23:30.526Z,5.85
2017-10-10T01:25:58.073Z,5.57
2017-10-10T01:28:25.608Z,5.40
2017-10-10T01:30:53.134Z,4.62
2017-10-10T01:33:20.685Z,5.78
2017-10-10T01:35:48.216Z,4.75
2017-10-10T01:38:15.773Z,5.87
2017-10-10T01:40:43.321Z,5.45
2017-10-10T01:43:10.864Z,5.55
2017-10-10T01:45:38.421Z,4.97
2017-10-10T01:48:05.948Z,5.40
2017-10-10T01:50:33.502Z,5.43
2017-10-10T01:53:01.122Z,5.10
2017-10-10T01:55:28.679Z,5.32
2017-10-10T01:57:56.227Z,5.97
2017-10-10T02:00:23.760Z,6.22
2017-10-10T02:02:52.089Z,6.15
2017-10-10T02:05:19.781Z,6.40
2017-10-10T02:07:47.321Z,5.62
2017-10-10T02:10:14.850Z,5.85
2017-10-10T02:12:42.393Z,5.78
2017-10-10T02:15:09.930Z,6.00
2017-10-10T02:17:37.482Z,5.70
2017-10-10T02:20:05.041Z,5.53
2017-10-10T02:22:32.566Z,5.65
2017-10-10T02:25:00.137Z,5.30
2017-10-10T02:27:28.426Z,5.12
2017-10-10T02:29:55.982Z,6.40
2017-10-10T02:32:23.517Z,4.85
2017-10-10T02:34:51.046Z,5.37
2017-10-10T02:37:18.613Z,6.18
2017-10-10T02:39:46.166Z,5.97
2017-10-10T02:42:13.708Z,4.78
2017-10-10T02:44:41.246Z,6.40
2017-10-10T02:47:09.553Z,5.15
2017-10-10T02:49:37.087Z,4.90
2017-10-10T02:52:05.413Z,5.65
2017-10-10T02:54:32.937Z,5.97
2017-10-10T02:57:00.484Z,6.53
2017-10-10T02:59:28.774Z,5.20
2017-10-10T03:01:56.316Z,5.00
2017-10-10T03:04:24.612Z,5.37
2017-10-10T03:06:52.903Z,5.60
2017-10-10T03:09:20.461Z,5.93
2017-10-10T03:11:47.989Z,4.97
2017-10-10T03:14:16.309Z,6.10
2017-10-10T03:16:43.832Z,5.53
2017-10-10T03:19:12.150Z,6.30
2017-10-10T03:21:39.670Z,6.05
2017-10-10T03:24:07.986Z,5.65
2017-10-10T03:26:35.518Z,5.90
2017-10-10T03:29:03.806Z,5.78
2017-10-10T03:31:31.365Z,6.47
2017-10-10T03:33:58.913Z,5.68
2017-10-10T03:36:27.228Z,6.40
2017-10-10T03:38:54.750Z,6.75
2017-10-10T03:41:22.305Z,6.28
2017-10-10T03:43:50.602Z,7.05
2017-10-10T03:46:18.163Z,6.75
2017-10-10T03:48:45.688Z,7.75
2017-10-10T03:51:13.998Z,6.37
2017-10-10T03:53:41.543Z,8.00
2017-10-10T03:56:09.094Z,6.37
2017-10-10T03:58:37.434Z,7.22
2017-10-10T04:01:04.957Z,7.18
2017-10-10T04:03:32.623Z,7.30
2017-10-10T04:06:00.147Z,6.35
2017-10-10T04:08:28.463Z,6.55
2017-10-10T04:10:55.982Z,6.93
2017-10-10T04:13:24.309Z,6.30
2017-10-10T04:15:51.847Z,5.80
2017-10-10T04:18:19.412Z,6.62
2017-10-10T04:20:46.944Z,6.15
2017-10-10T04:23:15.230Z,6.70
2017-10-10T04:25:42.774Z,6.87
2017-10-10T04:28:10.315Z,6.18
2017-10-10T04:30:37.831Z,5.90
2017-10-10T04:33:06.156Z,5.87
2017-10-10T04:35:34.492Z,5.65
2017-10-10T04:38:02.035Z,5.70
2017-10-10T04:40:29.591Z,5.68
2017-10-10T04:42:57.136Z,6.00
2017-10-10T04:45:24.661Z,5.65
2017-10-10T04:47:52.965Z,6.20
2017-10-10T04:50:20.543Z,6.37
2017-10-10T04:52:48.092Z,6.05
2017-10-10T04:55:15.661Z,4.85
2017-10-10T04:57:43.185Z,4.97
2017-10-10T05:00:11.498Z,5.62
2017-10-10T05:02:39.038Z,5.30
2017-10-10T05:05:06.597Z,4.50
2017-10-10T05:07:34.122Z,5.85
2017-10-10T05:10:01.670Z,5.45
2017-10-10T05:12:29.209Z,5.72
2017-10-10T05:14:56.728Z,5.40
2017-10-10T05:17:25.045Z,6.75
2017-10-10T05:19:52.590Z,5.62
2017-10-10T05:22:20.154Z,6.22
2017-10-10T05:24:47.694Z,6.20
2017-10-10T05:27:15.245Z,6.37
2017-10-10T05:29:43.534Z,5.40
2017-10-10T05:32:11.094Z,5.62
2017-10-10T05:34:38.626Z,5.15
2017-10-10T05:37:06.946Z,5.25
2017-10-10T05:39:34.465Z,5.00
2017-10-10T05:42:02.773Z,5.65
2017-10-10T05:44:30.447Z,5.22
2017-10-10T05:46:57.985Z,4.75
2017-10-10T05:49:25.537Z,5.43
2017-10-10T05:51:53.857Z,5.85
2017-10-10T05:54:21.383Z,5.05
2017-10-10T05:56:48.910Z,5.97
2017-10-10T05:59:16.416Z,5.30
2017-10-10T06:01:43.932Z,5.72
2017-10-10T06:04:11.428Z,5.50
2017-10-10T06:06:38.949Z,5.32
2017-10-10T06:09:06.475Z,5.30
2017-10-10T06:11:34.790Z,6.00
2017-10-10T06:14:02.280Z,5.55
2017-10-10T06:16:29.800Z,5.55
2017-10-10T06:18:57.318Z,5.75
2017-10-10T06:21:25.601Z,6.53
2017-10-10T06:23:53.875Z,5.20
2017-10-10T06:26:22.160Z,5.30
2017-10-10T06:28:49.673Z,5.15
2017-10-10T06:31:17.193Z,5.37
2017-10-10T06:33:44.696Z,5.62
2017-10-10T06:36:12.205Z,5.30
2017-10-10T06:38:39.723Z,5.65
2017-10-10T06:41:07.232Z,5.05
2017-10-10T06:43:34.768Z,5.12
2017-10-10T06:46:03.017Z,4.65
2017-10-10T06:48:30.529Z,4.62
2017-10-10T06:50:58.039Z,5.00
2017-10-10T06:53:26.328Z,6.20
2017-10-10T06:55:53.821Z,5.22
2017-10-10T06:58:21.348Z,5.03
2017-10-10T07:00:49.684Z,4.75
2017-10-10T07:03:17.181Z,4.75
2017-10-10T07:05:45.461Z,4.75
2017-10-10T07:08:13.734Z,4.37
2017-10-10T07:10:41.253Z,4.68
2017-10-10T07:13:08.777Z,5.07
2017-10-10T07:15:36.300Z,4.47
2017-10-10T07:18:03.796Z,4.90
2017-10-10T07:20:31.325Z,4.20
2017-10-10T07:22:58.824Z,4.45
2017-10-10T07:25:26.338Z,4.57
2017-10-10T07:27:53.831Z,3.42
2017-10-10T07:30:21.349Z,4.32
2017-10-10T07:32:48.848Z,4.15
2017-10-10T07:35:16.377Z,3.60
2017-10-10T07:37:43.869Z,4.25
2017-10-10T07:40:11.390Z,4.72
2017-10-10T07:42:38.883Z,4.15
2017-10-10T07:45:06.399Z,3.70
2017-10-10T07:47:33.883Z,3.65
2017-10-10T07:50:02.174Z,4.50
2017-10-10T07:52:29.696Z,3.92
2017-10-10T07:54:57.197Z,4.28
2017-10-10T07:57:24.803Z,4.20
2017-10-10T07:59:52.299Z,4.37
2017-10-10T08:02:20.581Z,4.22
2017-10-10T08:04:48.844Z,2.90
2017-10-10T08:07:17.124Z,3.12
2017-10-10T08:09:45.400Z,3.72
2017-10-10T08:12:13.676Z,3.45
2017-10-10T08:14:41.959Z,3.20
2017-10-10T08:17:10.242Z,4.03
2017-10-10T08:19:38.525Z,3.72
2017-10-10T08:22:06.027Z,3.53
2017-10-10T08:24:33.542Z,3.05
2017-10-10T08:27:01.074Z,2.72
2017-10-10T08:29:28.567Z,3.17
2017-10-10T08:31:56.084Z,3.05
2017-10-10T08:34:23.686Z,3.05
2017-10-10T08:36:51.184Z,3.12
2017-10-10T08:39:18.709Z,2.75
2017-10-10T08:41:46.205Z,2.72
2017-10-10T08:44:13.721Z,3.00
2017-10-10T08:46:41.308Z,3.00
2017-10-10T08:49:08.825Z,2.65
2017-10-10T08:51:37.121Z,3.60
2017-10-10T08:54:04.622Z,3.42
2017-10-10T08:56:32.153Z,3.33
2017-10-10T08:58:59.710Z,3.47
2017-10-10T09:01:27.240Z,3.80
2017-10-10T09:03:55.516Z,3.28
2017-10-10T09:06:23.793Z,3.60
2017-10-10T09:08:52.540Z,3.10
2017-10-10T09:11:20.070Z,3.37
2017-10-10T09:13:47.612Z,3.80
2017-10-10T09:16:15.911Z,3.80
2017-10-10T09:18:43.420Z,3.47
2017-10-10T09:21:10.933Z,3.15
2017-10-10T09:23:38.459Z,3.12
2017-10-10T09:26:06.722Z,3.37
2017-10-10T09:28:34.994Z,3.28
2017-10-10T09:31:03.295Z,3.30
2017-10-10T09:33:30.812Z,3.22
2017-10-10T09:35:58.304Z,3.00
2017-10-10T09:38:26.578Z,2.95
2017-10-10T09:40:54.151Z,3.28
2017-10-10T09:43:21.662Z,2.90
2017-10-10T09:45:49.185Z,2.90
2017-10-10T09:48:16.712Z,2.60
2017-10-10T09:50:45.094Z,3.10
2017-10-10T09:53:13.375Z,2.60
2017-10-10T09:55:40.905Z,2.62
2017-10-10T09:58:08.425Z,3.30
2017-10-10T10:00:35.982Z,2.80
2017-10-10T10:03:03.495Z,2.92
2017-10-10T10:05:31.773Z,2.50
2017-10-10T10:08:00.064Z,2.72
2017-10-10T10:10:27.579Z,2.87
2017-10-10T10:12:55.111Z,2.40
2017-10-10T10:15:22.631Z,2.65
2017-10-10T10:17:50.920Z,2.70
2017-10-10T10:20:18.428Z,2.60
2017-10-10T10:22:45.950Z,2.42
2017-10-10T10:25:13.453Z,2.30
2017-10-10T10:27:40.960Z,2.42
2017-10-10T10:30:08.494Z,2.00
2017-10-10T10:32:36.783Z,1.65
2017-10-10T10:35:04.315Z,1.60
2017-10-10T10:37:31.835Z,1.55
2017-10-10T10:39:59.359Z,1.50
2017-10-10T10:42:27.637Z,1.40
2017-10-10T10:44:55.173Z,1.55
2017-10-10T10:47:22.673Z,2.12
2017-10-10T10:49:50.189Z,1.48
2017-10-10T10:52:17.690Z,1.58
2017-10-10T10:54:45.202Z,1.37
2017-10-10T10:57:12.747Z,1.20
2017-10-10T10:59:41.025Z,1.15
2017-10-10T11:02:09.314Z,1.10
2017-10-10T11:04:37.613Z,1.50
2017-10-10T11:07:05.150Z,1.50
2017-10-10T11:09:32.673Z,1.70
2017-10-10T11:12:00.172Z,1.58
2017-10-10T11:14:27.715Z,1.40
2017-10-10T11:16:55.214Z,1.30
2017-10-10T11:19:23.502Z,1.67
2017-10-10T11:21:51.769Z,1.77
2017-10-10T11:24:20.060Z,1.77
2017-10-10T11:26:47.580Z,1.92
2017-10-10T11:29:15.078Z,1.40
2017-10-10T11:31:42.585Z,1.58
2017-10-10T11:34:10.100Z,1.83
2017-10-10T11:36:37.612Z,1.50
2017-10-10T11:39:05.120Z,1.58
2017-10-10T11:41:32.646Z,1.75
2017-10-10T11:44:00.913Z,1.65
2017-10-10T11:46:28.445Z,1.33
2017-10-10T11:48:55.961Z,1.95
2017-10-10T11:51:24.261Z,1.60
2017-10-10T11:53:51.768Z,1.70
2017-10-10T11:56:19.292Z,1.77
2017-10-10T11:58:46.826Z,2.08
2017-10-10T12:01:14.352Z,2.20
2017-10-10T12:03:41.868Z,2.08
2017-10-10T12:06:09.407Z,2.60
2017-10-10T12:08:36.923Z,3.00
2017-10-10T12:11:04.433Z,2.70
2017-10-10T12:13:31.967Z,2.75
2017-10-10T12:16:00.236Z,2.62
2017-10-10T12:18:28.511Z,3.28
2017-10-10T12:20:56.797Z,2.87
2017-10-10T12:23:25.081Z,2.60
2017-10-10T12:25:53.357Z,2.33
2017-10-10T12:28:20.858Z,3.00
2017-10-10T12:30:48.377Z,3.35
2017-10-10T12:33:15.930Z,3.35
2017-10-10T12:35:44.219Z,3.20
2017-10-10T12:38:11.727Z,4.30
2017-10-10T12:40:39.243Z,4.95
2017-10-10T12:43:06.742Z,3.12
2017-10-10T12:45:34.256Z,3.30
2017-10-10T12:48:01.761Z,3.15
2017-10-10T12:50:29.257Z,3.22
2017-10-10T12:52:57.545Z,3.00
2017-10-10T12:55:25.053Z,3.05
2017-10-10T12:57:52.574Z,3.30
2017-10-10T13:00:20.103Z,3.90
2017-10-10T13:02:48.424Z,3.85
2017-10-10T13:05:15.937Z,4.25
2017-10-10T13:07:44.232Z,3.42
2017-10-10T13:10:11.738Z,3.60
2017-10-10T13:12:39.266Z,3.40
2017-10-10T13:15:06.795Z,5.00
2017-10-10T13:17:35.073Z,4.70
2017-10-10T13:20:03.362Z,3.97
2017-10-10T13:22:30.863Z,3.65
2017-10-10T13:24:58.387Z,3.75
2017-10-10T13:27:25.884Z,3.70
2017-10-10T13:29:53.412Z,3.65
2017-10-10T13:32:20.929Z,4.03
2017-10-10T13:34:48.452Z,3.30
2017-10-10T13:37:16.740Z,3.60
2017-10-10T13:39:45.065Z,3.80
2017-10-10T13:42:12.583Z,2.97
2017-10-10T13:44:40.092Z,2.90
2017-10-10T13:47:07.612Z,3.42
2017-10-10T13:49:35.118Z,3.15
2017-10-10T13:52:02.627Z,3.28
2017-10-10T13:54:30.191Z,3.20
2017-10-10T13:56:57.700Z,2.90
2017-10-10T13:59:25.225Z,2.65
2017-10-10T14:01:52.755Z,2.85
2017-10-10T14:04:20.275Z,2.40
2017-10-10T14:06:48.746Z,2.28
2017-10-10T14:09:16.270Z,1.60
2017-10-10T14:11:43.764Z,1.30
2017-10-10T14:14:11.296Z,1.30
2017-10-10T14:16:38.818Z,1.10
2017-10-10T14:19:07.090Z,1.00
2017-10-10T14:21:35.372Z,1.50
2017-10-10T14:24:03.654Z,3.35
2017-10-10T14:26:31.953Z,2.60
2017-10-10T14:28:59.520Z,1.20
2017-10-10T14:31:27.059Z,1.20
2017-10-10T14:33:54.573Z,1.05
2017-10-10T14:36:22.101Z,1.00
2017-10-10T14:38:49.602Z,0.98
2017-10-10T14:41:17.123Z,1.30
2017-10-10T14:43:44.626Z,1.00
2017-10-10T14:46:12.925Z,1.08
2017-10-10T14:48:40.451Z,1.02
2017-10-10T14:51:07.958Z,0.85
2017-10-10T14:53:35.480Z,1.08
2017-10-10T14:56:03.007Z,1.00
2017-10-10T14:58:31.375Z,2.37
2017-10-10T15:00:59.698Z,1.33
2017-10-10T15:03:27.256Z,1.17
2017-10-10T15:05:54.804Z,1.10
2017-10-10T15:08:22.350Z,1.80
2017-10-10T15:10:50.019Z,1.10
2017-10-10T15:13:17.554Z,1.10
2017-10-10T15:15:45.146Z,1.33
2017-10-10T15:18:12.690Z,1.45
2017-10-10T15:20:40.261Z,1.12
2017-10-10T15:23:07.918Z,1.35
2017-10-10T15:25:35.470Z,1.10
2017-10-10T15:28:03.039Z,1.12
2017-10-10T15:30:30.569Z,1.08
2017-10-10T15:32:58.190Z,1.15
2017-10-10T15:35:25.740Z,1.43
2017-10-10T15:37:53.307Z,1.00
2017-10-10T15:40:20.866Z,1.10
2017-10-10T15:42:48.421Z,1.33
2017-10-10T15:45:15.968Z,1.00
2017-10-10T15:47:44.294Z,1.02
2017-10-10T15:50:11.873Z,1.02
2017-10-10T15:52:39.433Z,1.10
2017-10-10T15:55:06.987Z,1.10
2017-10-10T15:57:34.542Z,1.10
2017-10-10T16:00:02.090Z,1.30
2017-10-10T16:02:29.652Z,1.40
2017-10-10T16:04:57.222Z,1.10
2017-10-10T16:07:24.786Z,1.65
2017-10-10T16:09:52.333Z,2.03
2017-10-10T16:12:19.986Z,1.67
2017-10-10T16:14:47.544Z,1.58
2017-10-10T16:17:15.094Z,1.30
2017-10-10T16:19:42.651Z,1.40
2017-10-10T16:22:10.189Z,1.20
2017-10-10T16:24:38.513Z,1.48
2017-10-10T16:27:06.052Z,1.17
2017-10-10T16:29:33.584Z,1.67
2017-10-10T16:32:01.906Z,1.17
2017-10-10T16:34:29.456Z,1.30
2017-10-10T16:36:57.017Z,1.30
2017-10-10T16:39:24.561Z,1.20
2017-10-10T16:41:52.115Z,1.20
2017-10-10T16:44:19.650Z,1.33
2017-10-10T16:46:47.969Z,1.33
2017-10-10T16:49:15.545Z,1.20
2017-10-10T16:51:43.116Z,1.20
2017-10-10T16:54:10.646Z,1.20
2017-10-10T16:56:38.200Z,1.40
2017-10-10T16:59:05.729Z,1.30
2017-10-10T17:01:35.197Z,1.65
2017-10-10T17:04:02.738Z,2.60
2017-10-10T17:06:30.308Z,3.87
2017-10-10T17:08:57.857Z,3.60
2017-10-10T17:11:25.416Z,2.40
2017-10-10T17:13:52.949Z,1.80
2017-10-10T17:16:22.265Z,1.60
2017-10-10T17:18:49.797Z,2.03
2017-10-10T17:21:18.395Z,1.70
2017-10-10T17:23:45.925Z,1.62
2017-10-10T17:26:13.459Z,1.80
2017-10-10T17:28:41.024Z,1.90
2017-10-10T17:31:08.568Z,2.15
2017-10-10T17:33:36.133Z,1.80
2017-10-10T17:36:03.677Z,2.17
2017-10-10T17:38:31.268Z,2.50
2017-10-10T17:40:58.840Z,1.83
2017-10-10T17:43:26.433Z,1.80
2017-10-10T17:45:54.229Z,2.20
2017-10-10T17:48:21.859Z,2.70
2017-10-10T17:50:49.513Z,2.50
2017-10-10T17:53:17.314Z,2.62
2017-10-10T17:55:45.190Z,2.25
2017-10-10T17:58:13.152Z,2.83
2017-10-10T18:00:41.126Z,2.03
2017-10-10T18:03:09.196Z,2.75
2017-10-10T18:05:37.070Z,2.75
2017-10-10T18:08:05.857Z,2.45
2017-10-10T18:10:33.818Z,2.60
2017-10-10T18:13:01.795Z,2.90
2017-10-10T18:15:30.583Z,2.78
2017-10-10T18:17:59.277Z,3.20
2017-10-10T18:20:28.052Z,2.20
2017-10-10T18:22:56.231Z,2.15
2017-10-10T18:25:24.309Z,2.40
2017-10-10T18:27:53.193Z,1.90
2017-10-10T18:30:21.365Z,2.50
2017-10-10T18:32:50.258Z,2.47
2017-10-10T18:35:18.327Z,2.00
2017-10-10T18:37:46.296Z,1.80
2017-10-10T18:40:17.121Z,2.05
2017-10-10T18:42:45.720Z,1.83
2017-10-10T18:45:13.686Z,2.20
2017-10-10T18:47:41.657Z,1.85
2017-10-10T18:50:09.728Z,1.70
2017-10-10T18:52:37.700Z,1.60
2017-10-10T18:55:05.873Z,1.95
2017-10-10T18:57:33.842Z,1.75
2017-10-10T19:00:02.732Z,1.70
2017-10-10T19:02:30.708Z,1.77
2017-10-10T19:04:58.775Z,2.17
2017-10-10T19:07:26.745Z,2.00
2017-10-10T19:09:54.712Z,2.17
2017-10-10T19:12:23.399Z,1.80
2017-10-10T19:14:51.285Z,2.47
2017-10-10T19:17:20.061Z,1.98
2017-10-10T19:19:48.949Z,2.20
2017-10-10T19:22:17.034Z,1.60
2017-10-10T19:24:45.816Z,2.22
2017-10-10T19:27:14.608Z,1.70
2017-10-10T19:29:44.101Z,1.80
2017-10-10T19:32:12.277Z,2.20
2017-10-10T19:34:40.245Z,1.55
2017-10-10T19:37:09.139Z,2.17
2017-10-10T19:39:37.108Z,1.75
2017-10-10T19:42:05.082Z,1.70
2017-10-10T19:44:34.274Z,1.60
2017-10-10T19:47:02.244Z,1.85
2017-10-10T19:49:31.236Z,1.70
2017-10-10T19:51:59.111Z,1.90
2017-10-10T19:54:27.177Z,2.17
2017-10-10T19:56:55.248Z,2.42
2017-10-10T19:59:23.217Z,2.10
2017-10-10T20:01:51.289Z,2.10
2017-10-10T20:04:19.264Z,2.12
2017-10-10T20:06:47.330Z,2.05
2017-10-10T20:09:15.304Z,2.00
2017-10-10T20:11:43.173Z,2.45
2017-10-10T20:14:11.242Z,2.50
2017-10-10T20:16:39.213Z,2.85
2017-10-10T20:19:08.006Z,1.80
2017-10-10T20:21:36.074Z,1.90
2017-10-10T20:24:03.940Z,2.30
2017-10-10T20:26:31.824Z,2.47
2017-10-10T20:28:59.671Z,2.65
2017-10-10T20:31:27.537Z,2.60
2017-10-10T20:33:55.200Z,2.22
2017-10-10T20:36:22.741Z,3.10
2017-10-10T20:38:50.305Z,3.05
2017-10-10T20:41:17.853Z,3.30
2017-10-10T20:43:45.545Z,3.30
2017-10-10T20:46:13.100Z,3.47
2017-10-10T20:48:40.659Z,4.18
2017-10-10T20:51:08.190Z,4.10
2017-10-10T20:53:35.788Z,3.97
2017-10-10T20:56:03.344Z,3.70
2017-10-10T20:58:30.897Z,4.00
2017-10-10T21:00:58.450Z,3.60
2017-10-10T21:03:25.998Z,4.57
2017-10-10T21:05:53.561Z,4.35
2017-10-10T21:08:21.106Z,5.97
2017-10-10T21:10:49.422Z,4.15
2017-10-10T21:13:16.993Z,4.82
2017-10-10T21:15:44.564Z,4.85
2017-10-10T21:18:12.124Z,4.12
2017-10-10T21:20:39.660Z,4.28
2017-10-10T21:23:07.229Z,3.65
2017-10-10T21:25:34.753Z,4.25
2017-10-10T21:28:02.316Z,3.65
2017-10-10T21:30:29.846Z,3.97
2017-10-10T21:32:58.281Z,3.75
2017-10-10T21:35:25.857Z,3.75
2017-10-10T21:37:53.385Z,3.22
2017-10-10T21:40:20.945Z,3.70
2017-10-10T21:42:48.476Z,3.60
2017-10-10T21:45:16.790Z,3.28
2017-10-10T21:47:45.389Z,3.33
2017-10-10T21:50:12.939Z,2.90
2017-10-10T21:52:40.604Z,2.97
2017-10-10T21:55:08.133Z,3.20
2017-10-10T21:57:35.737Z,3.03
2017-10-10T22:00:03.286Z,3.10
2017-10-10T22:02:30.861Z,3.10
2017-10-10T22:04:59.176Z,2.95
2017-10-10T22:07:27.501Z,2.95
2017-10-10T22:09:55.025Z,3.42
2017-10-10T22:12:22.616Z,4.03
2017-10-10T22:14:50.180Z,3.47
2017-10-10T22:17:17.739Z,4.07
2017-10-10T22:19:45.301Z,4.20
2017-10-10T22:22:12.963Z,3.60
2017-10-10T22:24:40.623Z,4.55
2017-10-10T22:27:08.182Z,4.05
2017-10-10T22:29:35.749Z,4.53
2017-10-10T22:32:03.302Z,4.75
2017-10-10T22:34:30.882Z,5.10
2017-10-10T22:36:58.420Z,5.18
2017-10-10T22:39:25.986Z,5.45
2017-10-10T22:41:53.549Z,4.95
2017-10-10T22:44:21.075Z,4.97
2017-10-10T22:46:48.613Z,5.62
2017-10-10T22:49:16.909Z,5.03
2017-10-10T22:51:44.458Z,5.55
2017-10-10T22:54:12.775Z,5.60
2017-10-10T22:56:40.348Z,4.45
2017-10-10T22:59:07.887Z,5.28
2017-10-10T23:01:35.556Z,6.32
2017-10-10T23:04:03.104Z,5.68
2017-10-10T23:06:30.745Z,6.20
2017-10-10T23:08:58.302Z,6.00
2017-10-10T23:11:26.626Z,7.40
2017-10-10T23:13:54.188Z,4.78
2017-10-10T23:16:21.743Z,4.45
2017-10-10T23:18:49.294Z,4.60
2017-10-10T23:21:16.832Z,4.37
2017-10-10T23:23:44.386Z,4.10
2017-10-10T23:26:12.707Z,4.50
2017-10-10T23:28:40.319Z,4.45
2017-10-10T23:31:08.648Z,4.70
2017-10-10T23:33:36.210Z,3.83
2017-10-10T23:36:03.786Z,3.78
2017-10-10T23:38:31.315Z,3.17
2017-10-10T23:40:58.863Z,3.72
2017-10-10T23:43:26.401Z,3.72
2017-10-10T23:45:53.945Z,3.15
2017-10-10T23:48:21.508Z,3.75
2017-10-10T23:50:49.796Z,3.25
2017-10-10T23:53:17.368Z,2.95
2017-10-10T23:55:44.892Z,3.20
2017-10-10T23:58:12.449Z,3.10
